Time;durP1;ratioP1;P1;durP2;ratioP2;P2;SDS_P1;SDS_P2;PMS_P1;PMS_P2;Temp;Humidity;BMP_temperature;BMP_pressure;BME280_temperature;BME280_humidity;BME280_pressure;Samples;Min_cycle;Max_cycle;Signal;HPM_P1;HPM_P2
2022/07/07 00:02:23;;;;;;;12.77;2.20;;;;;;;;;;4989719;28;20060;-75
2022/07/07 00:04:51;;;;;;;4.18;2.17;;;;;;;;;;5008464;28;20057;-74
2022/07/07 00:07:19;;;;;;;7.88;2.30;;;;;;;;;;5004508;28;20076;-75
2022/07/07 00:09:46;;;;;;;5.40;2.63;;;;;;;;;;5005546;28;20041;-74
2022/07/07 00:12:13;;;;;;;6.63;2.38;;;;;;;;;;5007694;28;20072;-74
2022/07/07 00:14:41;;;;;;;8.18;3.35;;;;;;;;;;5004097;28;20050;-75
2022/07/07 00:17:08;;;;;;;3.00;2.15;;;;;;;;;;4988393;28;20139;-74
2022/07/07 00:19:35;;;;;;;8.55;2.90;;;;;;;;;;5007410;28;20573;-74
2022/07/07 00:22:03;;;;;;;9.80;2.60;;;;;;;;;;5010362;28;20180;-75
2022/07/07 00:24:30;;;;;;;12.35;2.80;;;;;;;;;;5011953;28;20189;-75
2022/07/07 00:26:57;;;;;;;7.15;2.83;;;;;;;;;;5003988;28;20050;-75
2022/07/07 00:29:24;;;;;;;7.70;2.67;;;;;;;;;;5005386;28;20127;-74
2022/07/07 00:31:52;;;;;;;13.75;3.10;;;;;;;;;;5005059;28;21037;-74
2022/07/07 00:34:19;;;;;;;7.15;2.97;;;;;;;;;;5009621;28;20051;-74
2022/07/07 00:36:47;;;;;;;6.90;3.05;;;;;;;;;;5004220;28;20137;-75
2022/07/07 00:39:14;;;;;;;9.45;3.65;;;;;;;;;;5020947;28;20053;-75
2022/07/07 00:41:41;;;;;;;10.63;3.65;;;;;;;;;;5007505;28;20049;-75
2022/07/07 00:44:12;;;;;;;17.77;3.33;;;;;;;;;;4989328;28;20084;-75
2022/07/07 00:46:44;;;;;;;6.97;3.50;;;;;;;;;;5001591;28;20140;-75
2022/07/07 00:49:13;;;;;;;5.95;3.80;;;;;;;;;;5004821;28;20134;-75
2022/07/07 00:51:41;;;;;;;5.18;3.55;;;;;;;;;;5006326;28;20063;-75
2022/07/07 00:57:27;;;;;;;8.55;4.15;;;;;;;;;;5029950;28;20124;-75
2022/07/07 00:59:58;;;;;;;14.90;4.80;;;;;;;;;;5026729;28;20049;-75
2022/07/07 01:02:27;;;;;;;13.80;4.00;;;;;;;;;;5025486;28;20128;-74
2022/07/07 01:04:55;;;;;;;7.80;4.28;;;;;;;;;;5032953;28;20112;-75
2022/07/07 01:07:22;;;;;;;12.02;4.38;;;;;;;;;;5020105;28;20068;-75
2022/07/07 01:09:50;;;;;;;9.68;4.40;;;;;;;;;;5044250;28;20049;-75
2022/07/07 01:12:17;;;;;;;6.85;3.55;;;;;;;;;;5042955;28;20053;-75
2022/07/07 01:14:44;;;;;;;7.32;4.25;;;;;;;;;;5024011;28;20163;-75
2022/07/07 01:17:12;;;;;;;12.65;3.95;;;;;;;;;;5025268;28;20332;-74
2022/07/07 01:19:39;;;;;;;8.52;4.00;;;;;;;;;;5039007;28;20148;-74
2022/07/07 01:22:12;;;;;;;5.82;3.90;;;;;;;;;;5024436;28;20131;-75
2022/07/07 01:24:40;;;;;;;14.43;4.20;;;;;;;;;;5041162;28;20494;-75
2022/07/07 01:27:08;;;;;;;12.40;3.95;;;;;;;;;;5024096;28;20127;-75
2022/07/07 01:29:36;;;;;;;11.85;4.03;;;;;;;;;;5041686;28;20189;-75
2022/07/07 01:32:04;;;;;;;9.43;4.28;;;;;;;;;;5040415;28;20055;-75
2022/07/07 01:34:32;;;;;;;6.20;3.55;;;;;;;;;;5039721;28;20762;-75
2022/07/07 01:37:00;;;;;;;5.78;4.10;;;;;;;;;;5030846;28;20123;-75
2022/07/07 01:39:27;;;;;;;9.88;3.85;;;;;;;;;;5045088;28;20144;-75
2022/07/07 01:41:54;;;;;;;6.63;4.32;;;;;;;;;;5035351;28;20085;-76
2022/07/07 01:44:22;;;;;;;11.98;4.75;;;;;;;;;;5007722;28;20081;-75
2022/07/07 01:46:49;;;;;;;14.82;4.50;;;;;;;;;;5007763;28;20061;-75
2022/07/07 01:49:17;;;;;;;14.52;4.75;;;;;;;;;;5008631;28;20084;-76
2022/07/07 01:51:44;;;;;;;10.05;4.25;;;;;;;;;;5006402;28;20076;-76
2022/07/07 01:54:12;;;;;;;8.80;4.50;;;;;;;;;;5027235;28;20088;-76
2022/07/07 01:56:39;;;;;;;11.73;4.38;;;;;;;;;;5029370;28;20545;-76
2022/07/07 01:59:06;;;;;;;10.80;4.47;;;;;;;;;;5029286;28;20130;-76
2022/07/07 02:01:34;;;;;;;6.82;4.40;;;;;;;;;;5033717;28;20509;-76
2022/07/07 02:04:01;;;;;;;10.98;4.10;;;;;;;;;;5032865;28;21073;-76
2022/07/07 02:06:28;;;;;;;7.68;3.92;;;;;;;;;;5034209;28;20049;-75
2022/07/07 02:08:56;;;;;;;7.50;4.10;;;;;;;;;;5040854;28;20137;-76
2022/07/07 02:11:23;;;;;;;7.00;3.50;;;;;;;;;;5032610;28;20085;-76
2022/07/07 02:13:51;;;;;;;8.30;3.42;;;;;;;;;;5013667;28;20164;-76
2022/07/07 02:16:19;;;;;;;6.65;3.15;;;;;;;;;;5038528;28;20227;-76
2022/07/07 02:18:48;;;;;;;5.55;3.13;;;;;;;;;;5032152;28;20073;-76
2022/07/07 02:21:16;;;;;;;5.70;2.90;;;;;;;;;;5013241;28;20045;-76
2022/07/07 02:23:44;;;;;;;4.15;2.60;;;;;;;;;;5043491;28;20144;-76
2022/07/07 02:26:12;;;;;;;6.15;3.55;;;;;;;;;;5024117;28;20053;-76
2022/07/07 02:28:39;;;;;;;4.18;2.50;;;;;;;;;;5016024;28;20409;-76
2022/07/07 02:31:07;;;;;;;2.92;2.38;;;;;;;;;;5015610;28;20152;-76
2022/07/07 02:33:35;;;;;;;3.58;2.40;;;;;;;;;;5016475;28;20069;-76
2022/07/07 02:36:03;;;;;;;4.03;2.08;;;;;;;;;;5038114;28;20573;-76
2022/07/07 02:38:30;;;;;;;5.03;2.25;;;;;;;;;;5035066;28;20390;-77
2022/07/07 02:40:58;;;;;;;2.50;2.08;;;;;;;;;;5033263;28;20131;-76
2022/07/07 02:43:25;;;;;;;2.72;2.03;;;;;;;;;;5041395;28;20136;-77
2022/07/07 02:45:53;;;;;;;4.75;2.00;;;;;;;;;;5034565;28;20052;-77
2022/07/07 02:48:22;;;;;;;2.97;2.10;;;;;;;;;;5016015;28;20398;-76
2022/07/07 02:50:49;;;;;;;3.33;2.00;;;;;;;;;;5036166;28;20069;-77
2022/07/07 02:53:17;;;;;;;2.88;2.22;;;;;;;;;;5041596;28;20165;-77
2022/07/07 02:55:48;;;;;;;6.85;2.47;;;;;;;;;;5018443;28;20144;-77
2022/07/07 02:58:19;;;;;;;3.08;2.20;;;;;;;;;;5017804;28;20401;-77
2022/07/07 03:00:47;;;;;;;4.78;2.50;;;;;;;;;;5034333;28;20067;-76
2022/07/07 03:03:15;;;;;;;4.45;2.47;;;;;;;;;;5017692;28;20064;-77
2022/07/07 03:05:42;;;;;;;2.60;2.40;;;;;;;;;;5015265;28;20060;-76
2022/07/07 03:08:10;;;;;;;3.45;2.20;;;;;;;;;;5033445;28;20175;-76
2022/07/07 03:10:38;;;;;;;3.33;2.40;;;;;;;;;;5013952;28;20166;-76
2022/07/07 03:13:05;;;;;;;4.07;2.85;;;;;;;;;;5013169;28;20164;-76
2022/07/07 03:15:35;;;;;;;10.43;2.45;;;;;;;;;;5017040;28;20069;-76
2022/07/07 03:18:02;;;;;;;3.45;2.42;;;;;;;;;;5021810;28;20155;-76
2022/07/07 03:20:30;;;;;;;2.47;2.10;;;;;;;;;;5014051;28;20115;-76
2022/07/07 03:22:57;;;;;;;7.95;2.30;;;;;;;;;;5019328;28;20061;-76
2022/07/07 03:25:24;;;;;;;5.00;2.80;;;;;;;;;;5018879;28;20060;-77
2022/07/07 03:27:52;;;;;;;1.65;1.52;;;;;;;;;;5033592;28;20049;-77
2022/07/07 03:30:19;;;;;;;2.05;1.80;;;;;;;;;;5035797;28;20048;-77
2022/07/07 03:32:46;;;;;;;2.88;1.80;;;;;;;;;;5033295;28;20390;-77
2022/07/07 03:35:14;;;;;;;5.45;1.73;;;;;;;;;;5017495;28;20703;-77
2022/07/07 03:37:41;;;;;;;2.63;1.75;;;;;;;;;;5019270;28;20052;-77
2022/07/07 03:40:09;;;;;;;3.85;1.60;;;;;;;;;;5037614;28;20765;-77
2022/07/07 03:42:37;;;;;;;4.68;1.50;;;;;;;;;;5036588;28;20049;-77
2022/07/07 03:45:05;;;;;;;1.75;1.40;;;;;;;;;;5023266;28;20052;-77
2022/07/07 03:47:33;;;;;;;2.78;1.40;;;;;;;;;;5038310;28;20492;-76
2022/07/07 03:50:00;;;;;;;4.93;1.60;;;;;;;;;;5018066;28;20091;-77
2022/07/07 03:52:28;;;;;;;3.13;1.70;;;;;;;;;;5037669;28;20680;-78
2022/07/07 03:54:55;;;;;;;2.95;1.50;;;;;;;;;;5020610;28;20094;-77
2022/07/07 03:57:22;;;;;;;3.60;1.60;;;;;;;;;;5035248;28;21226;-77
2022/07/07 03:59:49;;;;;;;1.80;1.58;;;;;;;;;;5016903;28;20139;-77
2022/07/07 04:02:17;;;;;;;2.65;1.60;;;;;;;;;;5035979;28;20578;-77
2022/07/07 04:04:44;;;;;;;12.30;2.08;;;;;;;;;;5014646;28;21639;-77
2022/07/07 04:07:12;;;;;;;2.88;1.45;;;;;;;;;;5013671;28;20123;-77
2022/07/07 04:09:39;;;;;;;2.15;1.55;;;;;;;;;;5015408;28;20926;-77
2022/07/07 04:12:07;;;;;;;2.95;1.70;;;;;;;;;;5015831;28;20936;-77
2022/07/07 04:14:34;;;;;;;3.40;1.77;;;;;;;;;;5033471;28;20053;-77
2022/07/07 04:17:01;;;;;;;7.75;2.05;;;;;;;;;;5039549;28;20049;-76
2022/07/07 04:19:41;;;;;;;2.08;1.60;;;;;;;;;;5016564;28;20053;-76
2022/07/07 04:22:08;;;;;;;2.05;1.63;;;;;;;;;;5047229;28;20436;-84
2022/07/07 04:24:35;;;;;;;2.30;1.77;;;;;;;;;;5033581;28;20049;-84
2022/07/07 04:27:03;;;;;;;2.42;1.63;;;;;;;;;;5049680;28;20076;-83
2022/07/07 04:29:31;;;;;;;5.97;1.98;;;;;;;;;;5034274;28;20052;-83
2022/07/07 04:31:58;;;;;;;3.42;1.55;;;;;;;;;;5051266;28;20045;-84
2022/07/07 04:34:25;;;;;;;1.67;1.48;;;;;;;;;;5051717;28;20041;-84
2022/07/07 04:36:53;;;;;;;3.78;1.50;;;;;;;;;;5051323;28;20839;-85
2022/07/07 04:39:20;;;;;;;2.00;1.80;;;;;;;;;;5058187;28;20048;-85
2022/07/07 04:41:47;;;;;;;3.47;1.33;;;;;;;;;;5026747;28;20099;-86
2022/07/07 04:44:15;;;;;;;4.30;1.70;;;;;;;;;;5047617;28;20471;-83
2022/07/07 04:46:42;;;;;;;4.75;1.77;;;;;;;;;;5035764;28;20053;-83
2022/07/07 04:49:09;;;;;;;3.38;1.80;;;;;;;;;;5045003;28;20073;-83
2022/07/07 04:51:42;;;;;;;4.90;2.55;;;;;;;;;;5033390;28;20080;-84
2022/07/07 04:54:09;;;;;;;2.13;1.80;;;;;;;;;;5050435;28;20524;-83
2022/07/07 04:56:37;;;;;;;2.15;1.90;;;;;;;;;;5033471;28;20120;-81
2022/07/07 04:59:04;;;;;;;2.42;1.80;;;;;;;;;;5033656;28;20140;-81
2022/07/07 05:01:31;;;;;;;1.85;1.65;;;;;;;;;;5033917;28;20084;-82
2022/07/07 05:03:58;;;;;;;4.10;2.00;;;;;;;;;;5051766;28;20095;-82
2022/07/07 05:06:26;;;;;;;5.00;2.40;;;;;;;;;;5051447;28;20493;-82
2022/07/07 05:08:53;;;;;;;2.63;2.08;;;;;;;;;;5051822;28;20077;-85
2022/07/07 05:11:21;;;;;;;4.25;2.33;;;;;;;;;;5047454;28;20091;-86
2022/07/07 05:13:48;;;;;;;2.53;1.85;;;;;;;;;;5034774;28;20132;-81
2022/07/07 05:16:15;;;;;;;6.47;2.17;;;;;;;;;;5047005;28;20053;-84
2022/07/07 05:18:43;;;;;;;3.97;2.40;;;;;;;;;;5050714;28;20063;-82
2022/07/07 05:21:11;;;;;;;3.35;2.38;;;;;;;;;;5050704;28;20616;-81
2022/07/07 05:23:38;;;;;;;4.95;2.22;;;;;;;;;;5050425;28;20057;-81
2022/07/07 05:26:05;;;;;;;3.42;2.20;;;;;;;;;;5049677;28;20052;-85
2022/07/07 05:28:33;;;;;;;5.75;2.25;;;;;;;;;;5044919;28;20048;-79
2022/07/07 05:31:02;;;;;;;3.67;2.30;;;;;;;;;;5033050;28;20140;-80
2022/07/07 05:33:30;;;;;;;8.32;2.50;;;;;;;;;;5051158;28;20071;-82
2022/07/07 05:35:57;;;;;;;2.95;2.47;;;;;;;;;;5236370;22;21217;-77
2022/07/07 05:38:28;;;;;;;3.22;2.28;;;;;;;;;;5046490;28;20052;-77
2022/07/07 05:40:55;;;;;;;6.30;2.70;;;;;;;;;;5047112;28;20172;-80
2022/07/07 05:43:23;;;;;;;3.28;2.67;;;;;;;;;;5045127;28;20157;-80
2022/07/07 05:45:51;;;;;;;4.22;3.03;;;;;;;;;;5029466;28;20138;-78
2022/07/07 05:48:18;;;;;;;8.07;3.85;;;;;;;;;;5030991;28;20053;-78
2022/07/07 05:50:46;;;;;;;6.13;4.25;;;;;;;;;;5028679;28;20204;-78
2022/07/07 05:53:13;;;;;;;11.18;5.47;;;;;;;;;;5048109;28;20045;-78
2022/07/07 05:55:40;;;;;;;8.27;4.65;;;;;;;;;;5048734;28;20140;-79
2022/07/07 05:58:08;;;;;;;10.23;5.63;;;;;;;;;;5047948;28;20139;-78
2022/07/07 06:00:35;;;;;;;9.18;5.63;;;;;;;;;;5047494;28;20080;-78
2022/07/07 06:03:02;;;;;;;11.77;5.38;;;;;;;;;;5048034;28;20107;-79
2022/07/07 06:05:30;;;;;;;7.47;5.32;;;;;;;;;;5043994;28;20072;-78
2022/07/07 06:07:57;;;;;;;11.10;5.47;;;;;;;;;;5029456;28;20084;-78
2022/07/07 06:10:25;;;;;;;8.70;5.93;;;;;;;;;;5029581;28;20132;-78
2022/07/07 06:12:52;;;;;;;9.27;5.43;;;;;;;;;;5029657;28;20130;-78
2022/07/07 06:15:20;;;;;;;9.25;5.57;;;;;;;;;;5029797;28;20713;-78
2022/07/07 06:17:48;;;;;;;10.10;5.90;;;;;;;;;;5028352;28;20538;-78
2022/07/07 06:20:35;;;;;;;9.73;6.13;;;;;;;;;;5039878;28;20052;-78
2022/07/07 06:23:02;;;;;;;12.60;6.25;;;;;;;;;;5048821;28;20087;-78
2022/07/07 06:25:30;;;;;;;10.00;6.50;;;;;;;;;;5048637;28;20099;-78
2022/07/07 06:27:57;;;;;;;8.40;5.85;;;;;;;;;;5049347;28;20104;-78
2022/07/07 06:30:25;;;;;;;10.02;6.38;;;;;;;;;;5048647;28;20450;-78
2022/07/07 06:32:53;;;;;;;9.57;5.80;;;;;;;;;;5048899;28;20053;-78
2022/07/07 06:35:20;;;;;;;12.27;6.88;;;;;;;;;;5029236;28;20141;-78
2022/07/07 06:37:48;;;;;;;9.70;5.70;;;;;;;;;;5025336;28;20583;-78
2022/07/07 06:40:16;;;;;;;8.27;5.47;;;;;;;;;;5027043;28;20119;-78
2022/07/07 06:42:43;;;;;;;8.50;5.10;;;;;;;;;;5028284;28;20498;-78
2022/07/07 06:45:11;;;;;;;9.07;5.82;;;;;;;;;;5029092;28;20056;-78
2022/07/07 06:47:38;;;;;;;9.93;6.38;;;;;;;;;;5031823;28;20049;-78
2022/07/07 06:50:06;;;;;;;10.25;5.93;;;;;;;;;;5011230;28;20137;-78
2022/07/07 06:52:34;;;;;;;8.35;6.18;;;;;;;;;;5011862;28;20101;-78
2022/07/07 06:55:01;;;;;;;7.50;5.60;;;;;;;;;;5027413;28;20077;-78
2022/07/07 06:57:36;;;;;;;8.60;5.80;;;;;;;;;;5024962;28;20094;-78
2022/07/07 07:00:04;;;;;;;7.90;5.28;;;;;;;;;;5025954;28;20046;-78
2022/07/07 07:02:31;;;;;;;9.18;5.38;;;;;;;;;;5031833;28;20568;-78
2022/07/07 07:04:59;;;;;;;6.63;4.75;;;;;;;;;;5028896;28;20050;-78
2022/07/07 07:07:29;;;;;;;10.73;4.57;;;;;;;;;;5030519;28;20089;-78
2022/07/07 07:09:57;;;;;;;7.05;4.20;;;;;;;;;;5030251;28;20129;-78
2022/07/07 07:12:24;;;;;;;5.53;4.07;;;;;;;;;;5030255;28;20060;-78
2022/07/07 07:14:51;;;;;;;4.65;4.03;;;;;;;;;;5028677;28;20489;-78
2022/07/07 07:17:19;;;;;;;6.22;3.88;;;;;;;;;;5035711;23;20179;-85
2022/07/07 07:19:46;;;;;;;6.60;3.75;;;;;;;;;;5026045;28;20053;-86
2022/07/07 07:22:13;;;;;;;5.38;3.17;;;;;;;;;;5025974;28;20049;-85
2022/07/07 07:24:41;;;;;;;5.03;3.88;;;;;;;;;;5026187;28;20091;-85
2022/07/07 07:27:08;;;;;;;4.80;3.90;;;;;;;;;;5026375;28;20077;-81
2022/07/07 07:29:35;;;;;;;3.47;3.17;;;;;;;;;;5028185;28;20081;-84
2022/07/07 07:32:03;;;;;;;4.47;3.58;;;;;;;;;;5026173;28;20108;-83
2022/07/07 07:34:30;;;;;;;5.43;3.25;;;;;;;;;;5031784;28;20078;-82
2022/07/07 07:36:57;;;;;;;5.32;3.60;;;;;;;;;;5030666;28;20099;-83
2022/07/07 07:39:25;;;;;;;5.32;3.30;;;;;;;;;;5031989;28;20661;-84
2022/07/07 07:41:52;;;;;;;4.20;3.67;;;;;;;;;;5029477;28;20171;-85
2022/07/07 07:47:05;;;;;;;15.73;5.10;;;;;;;;;;5030566;28;20084;-85
2022/07/07 07:49:33;;;;;;;6.47;4.40;;;;;;;;;;5028620;28;20395;-84
2022/07/07 07:52:00;;;;;;;4.50;3.90;;;;;;;;;;5031016;28;20772;-84
2022/07/07 07:54:33;;;;;;;4.10;3.55;;;;;;;;;;5031181;28;20080;-82
2022/07/07 07:57:00;;;;;;;5.20;3.42;;;;;;;;;;5029851;28;20053;-85
2022/07/07 07:59:27;;;;;;;5.20;3.72;;;;;;;;;;5029596;28;20057;-84
2022/07/07 08:01:55;;;;;;;4.68;4.10;;;;;;;;;;5018781;28;20563;-83
2022/07/07 08:04:22;;;;;;;6.88;4.68;;;;;;;;;;5044911;28;20088;-83
2022/07/07 08:06:50;;;;;;;6.63;4.75;;;;;;;;;;5031372;28;20053;-86
2022/07/07 08:12:49;;;;;;;5.88;4.03;;;;;;;;;;5026460;28;20049;-78
2022/07/07 08:15:16;;;;;;;5.78;4.15;;;;;;;;;;5027659;28;20084;-78
2022/07/07 08:17:44;;;;;;;6.03;4.60;;;;;;;;;;5044381;28;20113;-78
2022/07/07 08:20:12;;;;;;;10.07;5.57;;;;;;;;;;5044903;28;20045;-78
2022/07/07 08:22:39;;;;;;;6.25;4.70;;;;;;;;;;5025983;28;20072;-78
2022/07/07 08:25:07;;;;;;;6.63;4.88;;;;;;;;;;5040553;28;20077;-79
2022/07/07 08:27:34;;;;;;;9.32;5.22;;;;;;;;;;5026329;28;20138;-78
2022/07/07 08:30:02;;;;;;;8.23;4.57;;;;;;;;;;5038316;28;20137;-78
2022/07/07 08:32:29;;;;;;;5.10;4.20;;;;;;;;;;5024451;28;20145;-78
2022/07/07 08:34:56;;;;;;;6.20;4.50;;;;;;;;;;5030459;28;20112;-79
2022/07/07 08:37:24;;;;;;;9.00;4.90;;;;;;;;;;5031024;28;20049;-79
2022/07/07 08:39:51;;;;;;;5.70;4.47;;;;;;;;;;5015184;28;20128;-79
2022/07/07 08:42:19;;;;;;;8.02;4.82;;;;;;;;;;5012667;28;20069;-79
2022/07/07 08:44:46;;;;;;;6.50;4.07;;;;;;;;;;5041086;28;20131;-79
2022/07/07 08:47:13;;;;;;;4.50;3.83;;;;;;;;;;5025622;28;20446;-79
2022/07/07 08:49:41;;;;;;;4.97;4.15;;;;;;;;;;5042515;28;20084;-79
2022/07/07 08:52:08;;;;;;;5.15;3.78;;;;;;;;;;5038421;28;20128;-79
2022/07/07 08:54:39;;;;;;;9.90;7.03;;;;;;;;;;5040458;28;20164;-79
2022/07/07 08:57:07;;;;;;;7.13;4.28;;;;;;;;;;5025726;28;20088;-80
2022/07/07 08:59:35;;;;;;;4.25;3.58;;;;;;;;;;5025584;28;20081;-79
2022/07/07 09:02:09;;;;;;;3.35;2.92;;;;;;;;;;5026352;28;20053;-80
2022/07/07 09:04:36;;;;;;;4.40;3.10;;;;;;;;;;5026771;28;20130;-79
2022/07/07 09:07:05;;;;;;;5.45;2.75;;;;;;;;;;5026786;28;20057;-79
2022/07/07 09:09:45;;;;;;;4.07;2.55;;;;;;;;;;5030816;28;20493;-79
2022/07/07 09:12:14;;;;;;;3.25;2.38;;;;;;;;;;5029954;28;20498;-80
2022/07/07 09:14:43;;;;;;;2.30;2.10;;;;;;;;;;5031762;28;20049;-79
2022/07/07 09:17:15;;;;;;;7.53;2.10;;;;;;;;;;5025669;28;20378;-79
2022/07/07 09:19:43;;;;;;;2.35;2.15;;;;;;;;;;5044259;28;20085;-81
2022/07/07 09:22:12;;;;;;;1.80;1.70;;;;;;;;;;5044411;28;20061;-80
2022/07/07 09:24:59;;;;;;;1.42;1.33;;;;;;;;;;5044362;28;20092;-80
2022/07/07 09:27:27;;;;;;;2.15;1.75;;;;;;;;;;5024801;28;20085;-82
2022/07/07 09:29:54;;;;;;;2.85;1.35;;;;;;;;;;5042938;28;20076;-80
2022/07/07 09:32:21;;;;;;;6.38;1.48;;;;;;;;;;5044326;28;20132;-80
2022/07/07 09:34:48;;;;;;;2.83;1.20;;;;;;;;;;5024186;28;20045;-79
2022/07/07 09:40:02;;;;;;;2.83;1.45;;;;;;;;;;5029111;28;20441;-78
2022/07/07 09:42:36;;;;;;;2.85;1.30;;;;;;;;;;5044096;28;20823;-79
2022/07/07 09:45:06;;;;;;;1.42;1.15;;;;;;;;;;5030107;28;20397;-79
2022/07/07 09:47:33;;;;;;;1.88;1.45;;;;;;;;;;5037447;28;20073;-79
2022/07/07 09:50:09;;;;;;;4.30;1.20;;;;;;;;;;5043388;28;20060;-80
2022/07/07 09:52:38;;;;;;;2.83;1.00;;;;;;;;;;5038727;28;20049;-79
2022/07/07 09:55:11;;;;;;;1.90;0.98;;;;;;;;;;5041294;28;20124;-79
2022/07/07 09:57:40;;;;;;;1.63;1.00;;;;;;;;;;5040408;28;20056;-80
2022/07/07 10:00:08;;;;;;;1.60;0.90;;;;;;;;;;5042599;28;20152;-79
2022/07/07 10:02:36;;;;;;;2.88;1.00;;;;;;;;;;5029135;28;20057;-79
2022/07/07 10:05:05;;;;;;;1.25;0.77;;;;;;;;;;5031154;28;20060;-80
2022/07/07 10:07:34;;;;;;;1.63;0.90;;;;;;;;;;5044907;28;20093;-79
2022/07/07 10:10:06;;;;;;;3.10;1.40;;;;;;;;;;5029539;28;20041;-81
2022/07/07 10:12:33;;;;;;;19.60;2.05;;;;;;;;;;5043917;28;20096;-79
2022/07/07 10:15:03;;;;;;;11.25;1.30;;;;;;;;;;5027213;28;20073;-78
2022/07/07 10:17:31;;;;;;;8.57;1.52;;;;;;;;;;5046604;28;20092;-79
2022/07/07 10:19:58;;;;;;;10.15;1.10;;;;;;;;;;5033911;28;20049;-80
2022/07/07 10:22:29;;;;;;;1.73;0.90;;;;;;;;;;5034668;28;20057;-80
2022/07/07 10:24:57;;;;;;;5.95;1.70;;;;;;;;;;5032647;28;20072;-79
2022/07/07 10:27:26;;;;;;;5.20;1.13;;;;;;;;;;5033062;28;20077;-79
2022/07/07 10:30:00;;;;;;;5.68;1.10;;;;;;;;;;5048284;28;20045;-78
2022/07/07 10:32:38;;;;;;;7.13;1.30;;;;;;;;;;5048040;28;20057;-78
2022/07/07 10:35:07;;;;;;;2.17;1.23;;;;;;;;;;5030728;28;20149;-79
2022/07/07 10:37:45;;;;;;;3.13;1.27;;;;;;;;;;5033532;28;20053;-79
2022/07/07 10:40:18;;;;;;;2.58;1.45;;;;;;;;;;5031533;28;20107;-79
2022/07/07 10:42:51;;;;;;;1.45;1.23;;;;;;;;;;5033647;28;20081;-80
2022/07/07 10:45:19;;;;;;;1.83;1.17;;;;;;;;;;5028018;28;20136;-79
2022/07/07 10:47:46;;;;;;;3.88;1.15;;;;;;;;;;5046075;28;20455;-79
2022/07/07 10:50:30;;;;;;;2.35;1.02;;;;;;;;;;5030485;28;20449;-78
2022/07/07 10:52:58;;;;;;;3.55;1.10;;;;;;;;;;5026978;28;20132;-78
2022/07/07 10:55:53;;;;;;;3.95;1.23;;;;;;;;;;5030261;28;20076;-79
2022/07/07 10:58:39;;;;;;;1.88;1.00;;;;;;;;;;5030752;28;20085;-79
2022/07/07 11:01:09;;;;;;;3.35;1.35;;;;;;;;;;5028482;28;20545;-79
2022/07/07 11:03:37;;;;;;;4.45;1.40;;;;;;;;;;5041255;28;20107;-79
2022/07/07 11:06:05;;;;;;;4.75;1.55;;;;;;;;;;5043674;28;20053;-79
2022/07/07 11:08:36;;;;;;;4.20;1.50;;;;;;;;;;5045923;28;20061;-78
2022/07/07 11:11:05;;;;;;;7.13;1.60;;;;;;;;;;5046963;28;20080;-78
2022/07/07 11:13:33;;;;;;;7.32;1.67;;;;;;;;;;5047459;28;20096;-78
2022/07/07 11:16:13;;;;;;;4.03;1.65;;;;;;;;;;5047898;28;20084;-79
2022/07/07 11:18:42;;;;;;;4.43;1.95;;;;;;;;;;5036953;28;20076;-79
2022/07/07 11:21:09;;;;;;;5.80;1.90;;;;;;;;;;5042250;28;20485;-79
2022/07/07 11:23:56;;;;;;;2.83;1.67;;;;;;;;;;5044559;28;20613;-78
2022/07/07 11:26:25;;;;;;;5.45;1.90;;;;;;;;;;5031749;28;20094;-79
2022/07/07 11:28:53;;;;;;;6.28;2.05;;;;;;;;;;5031874;28;20049;-78
2022/07/07 11:31:20;;;;;;;9.60;1.77;;;;;;;;;;5037319;28;20481;-78
2022/07/07 11:33:55;;;;;;;8.25;2.15;;;;;;;;;;5043425;28;20129;-78
2022/07/07 11:36:28;;;;;;;3.22;1.70;;;;;;;;;;5023356;28;20502;-78
2022/07/07 11:42:05;;;;;;;2.92;1.95;;;;;;;;;;5010098;28;20057;-79
2022/07/07 11:44:32;;;;;;;5.25;1.85;;;;;;;;;;5009835;28;20057;-79
2022/07/07 11:47:00;;;;;;;4.15;1.83;;;;;;;;;;5012085;28;20103;-79
2022/07/07 11:49:27;;;;;;;8.52;1.98;;;;;;;;;;5009492;28;20057;-80
2022/07/07 11:51:55;;;;;;;7.93;2.05;;;;;;;;;;5003205;28;20073;-80
2022/07/07 11:54:22;;;;;;;7.28;1.58;;;;;;;;;;5012180;28;20069;-80
2022/07/07 11:56:49;;;;;;;7.18;1.33;;;;;;;;;;5011245;28;20078;-81
2022/07/07 11:59:17;;;;;;;5.35;1.60;;;;;;;;;;5010552;28;20081;-80
2022/07/07 12:01:50;;;;;;;4.60;1.80;;;;;;;;;;5010315;28;20556;-83
2022/07/07 12:04:22;;;;;;;17.90;1.77;;;;;;;;;;5010022;28;20065;-80
2022/07/07 12:06:51;;;;;;;3.50;1.40;;;;;;;;;;5010876;28;20074;-80
2022/07/07 12:09:19;;;;;;;3.30;1.30;;;;;;;;;;5010750;28;20057;-79
2022/07/07 12:11:48;;;;;;;2.92;1.35;;;;;;;;;;5009866;28;20046;-79
2022/07/07 12:14:15;;;;;;;4.70;1.45;;;;;;;;;;5012442;28;20057;-81
2022/07/07 12:16:47;;;;;;;3.40;1.48;;;;;;;;;;5011057;28;20464;-80
2022/07/07 12:19:14;;;;;;;4.28;1.17;;;;;;;;;;5012752;28;20237;-80
2022/07/07 12:21:47;;;;;;;3.17;1.15;;;;;;;;;;5006032;28;20133;-80
2022/07/07 12:24:15;;;;;;;3.33;1.10;;;;;;;;;;5006648;28;20050;-79
2022/07/07 12:26:51;;;;;;;5.57;1.23;;;;;;;;;;5011982;28;20073;-80
2022/07/07 12:29:18;;;;;;;;;;;;;;;;;;5010997;28;20049;-79
2022/07/07 12:31:46;;;;;;;6.45;1.60;;;;;;;;;;5006426;28;19968;-80
2022/07/07 12:34:17;;;;;;;8.85;1.50;;;;;;;;;;5012736;28;20045;-78
2022/07/07 12:36:44;;;;;;;5.03;1.70;;;;;;;;;;5007223;28;20077;-79
2022/07/07 12:39:19;;;;;;;2.55;1.55;;;;;;;;;;5010686;28;20748;-79
2022/07/07 12:41:51;;;;;;;8.27;1.80;;;;;;;;;;5009180;28;20046;-79
2022/07/07 12:44:22;;;;;;;6.60;1.20;;;;;;;;;;5007819;28;20054;-79
2022/07/07 12:47:09;;;;;;;5.03;1.50;;;;;;;;;;5015898;28;20059;-79
2022/07/07 12:49:37;;;;;;;3.60;1.50;;;;;;;;;;5009391;28;20137;-79
2022/07/07 12:52:11;;;;;;;4.40;1.38;;;;;;;;;;5007059;28;20047;-79
2022/07/07 12:54:39;;;;;;;7.47;1.33;;;;;;;;;;5009526;28;20042;-78
2022/07/07 12:57:08;;;;;;;14.60;1.38;;;;;;;;;;5009383;28;20057;-79
2022/07/07 12:59:45;;;;;;;6.85;1.30;;;;;;;;;;5005291;28;20103;-79
2022/07/07 13:05:12;;;;;;;6.47;1.33;;;;;;;;;;5018898;28;20130;-87
2022/07/07 13:07:39;;;;;;;5.22;1.35;;;;;;;;;;5048946;28;20133;-87
2022/07/07 13:10:07;;;;;;;2.67;1.20;;;;;;;;;;5022728;28;20160;-87
2022/07/07 13:12:35;;;;;;;3.22;0.93;;;;;;;;;;5028447;28;20045;-88
2022/07/07 13:15:03;;;;;;;4.07;1.27;;;;;;;;;;5052860;28;20057;-87
2022/07/07 13:17:31;;;;;;;4.35;1.50;;;;;;;;;;5046906;28;20497;-87
2022/07/07 13:19:58;;;;;;;3.65;1.00;;;;;;;;;;5030307;28;20513;-86
2022/07/07 13:22:25;;;;;;;4.72;1.30;;;;;;;;;;5046746;28;20687;-85
2022/07/07 13:24:53;;;;;;;6.03;1.40;;;;;;;;;;5030311;28;20076;-85
2022/07/07 13:27:20;;;;;;;6.03;1.20;;;;;;;;;;5060078;28;20049;-85
2022/07/07 13:29:48;;;;;;;2.70;0.80;;;;;;;;;;5011052;28;20081;-86
2022/07/07 13:32:15;;;;;;;3.53;1.10;;;;;;;;;;5028361;28;20104;-86
2022/07/07 13:34:42;;;;;;;2.92;1.20;;;;;;;;;;5032999;28;20072;-79
2022/07/07 13:37:10;;;;;;;9.43;1.30;;;;;;;;;;5039685;28;20100;-80
2022/07/07 13:39:37;;;;;;;2.53;0.95;;;;;;;;;;5042712;28;20500;-79
2022/07/07 13:42:05;;;;;;;5.32;1.10;;;;;;;;;;5045174;28;20042;-79
2022/07/07 13:44:37;;;;;;;2.13;0.88;;;;;;;;;;5028403;28;20049;-79
2022/07/07 13:47:04;;;;;;;4.30;1.05;;;;;;;;;;5045428;28;20050;-80
2022/07/07 13:49:32;;;;;;;6.35;1.08;;;;;;;;;;5032364;28;20487;-79
2022/07/07 13:51:59;;;;;;;8.95;1.33;;;;;;;;;;5049734;28;20046;-79
2022/07/07 13:54:43;;;;;;;4.88;1.00;;;;;;;;;;5032311;28;20089;-79
2022/07/07 13:57:11;;;;;;;3.38;1.00;;;;;;;;;;5048976;28;20139;-81
2022/07/07 13:59:39;;;;;;;4.15;1.10;;;;;;;;;;5048990;28;20084;-79
2022/07/07 14:02:06;;;;;;;2.08;1.20;;;;;;;;;;5049754;28;20530;-80
2022/07/07 14:04:34;;;;;;;6.07;1.10;;;;;;;;;;5051179;28;20132;-81
2022/07/07 14:07:02;;;;;;;16.30;2.75;;;;;;;;;;5052011;28;20056;-80
2022/07/07 14:09:30;;;;;;;8.68;1.50;;;;;;;;;;5052129;28;20446;-80
2022/07/07 14:11:59;;;;;;;5.82;1.42;;;;;;;;;;5051705;28;20124;-80
2022/07/07 14:14:26;;;;;;;8.15;1.42;;;;;;;;;;5052186;28;20147;-80
2022/07/07 14:16:53;;;;;;;4.53;1.30;;;;;;;;;;5013500;28;20081;-80
2022/07/07 14:19:20;;;;;;;9.90;2.00;;;;;;;;;;5030041;28;20058;-79
2022/07/07 14:21:48;;;;;;;4.72;1.67;;;;;;;;;;5028122;28;20062;-79
2022/07/07 14:24:15;;;;;;;8.00;1.90;;;;;;;;;;5028785;28;20564;-80
2022/07/07 14:26:43;;;;;;;5.47;1.98;;;;;;;;;;5046791;28;20088;-80
2022/07/07 14:29:10;;;;;;;6.00;1.80;;;;;;;;;;5033140;28;20394;-81
2022/07/07 14:31:37;;;;;;;4.18;2.10;;;;;;;;;;5031520;28;20133;-80
2022/07/07 14:34:05;;;;;;;3.88;1.77;;;;;;;;;;5039148;28;20067;-81
2022/07/07 14:36:32;;;;;;;15.68;2.60;;;;;;;;;;5028873;28;20095;-81
2022/07/07 14:39:00;;;;;;;5.32;2.60;;;;;;;;;;5048013;28;20416;-81
2022/07/07 14:41:28;;;;;;;10.32;2.20;;;;;;;;;;5048060;28;20049;-80
2022/07/07 14:43:56;;;;;;;7.00;2.67;;;;;;;;;;5048244;28;20064;-82
2022/07/07 14:46:30;;;;;;;9.60;2.70;;;;;;;;;;5055735;28;20041;-81
2022/07/07 14:48:58;;;;;;;18.65;2.45;;;;;;;;;;5051313;28;20052;-80
2022/07/07 14:51:25;;;;;;;10.70;2.50;;;;;;;;;;5034723;28;20481;-79
2022/07/07 14:53:53;;;;;;;13.35;2.90;;;;;;;;;;5036558;28;20107;-81
2022/07/07 14:56:22;;;;;;;18.35;2.83;;;;;;;;;;5052741;28;20647;-81
2022/07/07 14:58:50;;;;;;;11.40;3.33;;;;;;;;;;5044715;28;20056;-81
2022/07/07 15:01:17;;;;;;;11.25;3.17;;;;;;;;;;5036223;28;20155;-81
2022/07/07 15:03:44;;;;;;;8.98;2.95;;;;;;;;;;5038454;28;20045;-81
2022/07/07 15:06:12;;;;;;;19.00;3.22;;;;;;;;;;5037171;28;20053;-80
2022/07/07 15:08:40;;;;;;;19.02;3.38;;;;;;;;;;5035681;28;20619;-80